createdAt,value
2022-12-04T00:01:32.740Z,7.57
2022-12-04T00:06:34.810Z,8.35
2022-12-04T00:11:38.742Z,9.48
2022-12-04T00:16:41.049Z,9.02
2022-12-04T00:21:43.153Z,8.77
2022-12-04T00:26:45.345Z,8.85
2022-12-04T00:31:48.009Z,8.05
2022-12-04T00:36:50.100Z,8.60
2022-12-04T00:41:52.172Z,8.60
2022-12-04T00:46:54.277Z,11.52
2022-12-04T00:51:56.370Z,8.32
2022-12-04T00:56:58.404Z,8.60
2022-12-04T01:02:00.443Z,7.07
2022-12-04T01:07:05.198Z,7.88
2022-12-04T01:12:07.556Z,6.47
2022-12-04T01:17:09.657Z,6.85
2022-12-04T01:22:11.787Z,9.48
2022-12-04T01:27:13.782Z,6.32
2022-12-04T01:32:15.915Z,5.78
2022-12-04T01:37:17.970Z,7.93
2022-12-04T01:42:20.024Z,7.57
2022-12-04T01:47:22.071Z,8.00
2022-12-04T01:52:26.657Z,7.65
2022-12-04T01:57:32.285Z,6.78
2022-12-04T02:02:39.639Z,8.18
2022-12-04T02:07:45.494Z,8.93
2022-12-04T02:13:12.317Z,7.75
2022-12-04T02:18:52.749Z,7.50
2022-12-04T02:24:17.999Z,5.13
2022-12-04T02:29:36.164Z,7.93
2022-12-04T02:34:58.930Z,5.95
2022-12-04T02:40:07.148Z,6.20
2022-12-04T02:45:13.852Z,8.57
2022-12-04T02:50:19.738Z,8.95
2022-12-04T02:55:43.775Z,6.38
2022-12-04T03:00:48.010Z,6.05
2022-12-04T03:06:14.175Z,5.05
2022-12-04T03:11:16.256Z,7.80
2022-12-04T03:16:36.361Z,7.05
2022-12-04T03:21:48.133Z,6.78
2022-12-04T03:27:13.611Z,7.40
2022-12-04T03:32:23.566Z,7.20
2022-12-04T03:37:37.320Z,4.38
2022-12-04T03:42:46.685Z,7.30
2022-12-04T03:48:04.063Z,7.78
2022-12-04T03:53:20.632Z,7.00
2022-12-04T03:58:29.543Z,6.18
2022-12-04T04:03:37.256Z,5.45
2022-12-04T04:08:43.223Z,6.18
2022-12-04T04:14:11.119Z,7.15
2022-12-04T04:19:34.835Z,7.35
2022-12-04T04:24:46.387Z,7.50
2022-12-04T04:29:52.647Z,6.63
2022-12-04T04:35:10.930Z,7.43
2022-12-04T04:40:49.777Z,7.18
2022-12-04T04:45:58.201Z,4.93
2022-12-04T04:51:01.845Z,7.35
2022-12-04T04:56:06.620Z,5.63
2022-12-04T05:01:15.214Z,6.53
2022-12-04T05:06:17.488Z,3.92
2022-12-04T05:11:19.473Z,7.40
2022-12-04T05:16:21.581Z,7.38
2022-12-04T05:21:23.607Z,5.93
2022-12-04T05:26:25.843Z,7.10
2022-12-04T05:31:27.968Z,6.55
2022-12-04T05:36:30.032Z,6.30
2022-12-04T05:41:32.031Z,7.13
2022-12-04T05:46:34.054Z,6.05
2022-12-04T05:51:37.210Z,7.63
2022-12-04T05:56:39.277Z,6.03
2022-12-04T06:01:41.997Z,8.25
2022-12-04T06:06:44.218Z,5.78
2022-12-04T06:11:46.553Z,6.55
2022-12-04T06:16:48.670Z,7.00
2022-12-04T06:21:52.800Z,6.65
2022-12-04T06:32:22.326Z,6.05
2022-12-04T06:37:25.334Z,6.13
2022-12-04T06:42:27.298Z,7.35
2022-12-04T06:47:29.337Z,6.13
2022-12-04T06:52:34.016Z,8.50
2022-12-04T06:57:35.983Z,8.10
2022-12-04T07:02:38.041Z,7.25
2022-12-04T07:07:40.093Z,6.78
2022-12-04T07:12:42.103Z,7.35
2022-12-04T07:17:44.087Z,7.65
2022-12-04T07:22:46.069Z,6.50
2022-12-04T07:27:48.037Z,6.88
2022-12-04T07:32:50.038Z,6.20
2022-12-04T07:37:52.019Z,7.32
2022-12-04T07:42:54.022Z,7.03
2022-12-04T07:47:55.995Z,7.00
2022-12-04T07:52:58.078Z,7.43
2022-12-04T07:58:01.176Z,7.78
2022-12-04T08:03:03.203Z,6.63
2022-12-04T08:08:05.354Z,6.97
2022-12-04T08:13:07.458Z,7.35
2022-12-04T08:18:09.426Z,7.60
2022-12-04T08:23:11.472Z,6.07
2022-12-04T08:28:13.440Z,7.70
2022-12-04T08:33:15.382Z,6.90
2022-12-04T08:38:17.393Z,6.43
2022-12-04T08:43:19.417Z,7.05
2022-12-04T08:48:21.372Z,6.85
2022-12-04T08:53:23.840Z,7.68
2022-12-04T08:58:25.836Z,6.97
2022-12-04T09:03:30.998Z,7.20
2022-12-04T09:08:35.825Z,6.03
2022-12-04T09:13:38.935Z,5.65
2022-12-04T09:18:41.203Z,5.30
2022-12-04T09:23:43.619Z,6.75
2022-12-04T09:28:47.242Z,7.03
2022-12-04T09:33:50.015Z,7.55
2022-12-04T09:38:53.375Z,6.72
2022-12-04T09:43:58.022Z,6.18
2022-12-04T09:49:05.085Z,6.20
2022-12-04T09:54:33.155Z,5.97
2022-12-04T09:59:35.192Z,5.28
2022-12-04T10:04:37.212Z,6.22
2022-12-04T10:09:49.070Z,5.90
2022-12-04T10:20:23.732Z,6.90
2022-12-04T10:25:27.194Z,5.88
2022-12-04T10:30:32.880Z,5.20
2022-12-04T10:35:37.923Z,5.15
2022-12-04T10:40:49.101Z,5.50
2022-12-04T10:45:51.901Z,5.40
2022-12-04T10:50:54.186Z,5.13
2022-12-04T10:55:56.144Z,6.38
2022-12-04T11:01:05.181Z,5.65
2022-12-04T11:06:10.047Z,5.57
2022-12-04T11:11:16.764Z,5.32
2022-12-04T11:16:44.838Z,5.47
2022-12-04T11:21:47.569Z,4.72
2022-12-04T11:26:50.765Z,4.25
2022-12-04T11:31:55.467Z,4.35
2022-12-04T11:37:00.540Z,5.47
2022-12-04T11:42:24.294Z,4.10
2022-12-04T11:47:28.930Z,5.15
2022-12-04T11:53:02.661Z,4.55
2022-12-04T11:58:36.623Z,3.67
2022-12-04T12:03:49.472Z,4.20
2022-12-04T12:09:17.115Z,4.03
2022-12-04T12:14:34.940Z,4.40
2022-12-04T12:19:58.191Z,3.08
2022-12-04T12:25:11.500Z,4.75
2022-12-04T12:30:18.090Z,4.65
2022-12-04T12:35:31.869Z,5.00
2022-12-04T12:40:44.954Z,3.63
2022-12-04T12:45:59.809Z,4.35
2022-12-04T12:51:29.627Z,3.75
2022-12-04T12:56:47.830Z,4.13
2022-12-04T13:02:18.670Z,4.50
2022-12-04T13:07:27.897Z,2.58
2022-12-04T13:12:37.480Z,3.88
2022-12-04T13:17:40.238Z,3.30
2022-12-04T13:23:01.105Z,4.75
2022-12-04T13:28:23.763Z,3.53
2022-12-04T13:33:37.761Z,4.55
2022-12-04T13:38:58.428Z,3.40
2022-12-04T13:44:05.614Z,4.63
2022-12-04T13:49:18.011Z,3.58
2022-12-04T13:54:25.326Z,3.60
2022-12-04T13:59:27.354Z,4.65
2022-12-04T14:04:34.167Z,4.43
2022-12-04T14:09:42.738Z,3.35
2022-12-04T14:14:55.901Z,3.85
2022-12-04T14:20:07.274Z,3.78
2022-12-04T14:25:12.645Z,4.80
2022-12-04T14:30:36.537Z,4.30
2022-12-04T14:35:47.824Z,2.85
2022-12-04T14:40:53.753Z,3.85
2022-12-04T14:45:59.213Z,4.30
2022-12-04T14:51:18.473Z,4.53
2022-12-04T14:56:29.077Z,5.40
2022-12-04T15:01:37.489Z,4.18
2022-12-04T15:06:40.435Z,4.80
2022-12-04T15:12:10.711Z,4.88
2022-12-04T15:17:14.131Z,4.65
2022-12-04T15:22:23.806Z,4.88
2022-12-04T15:27:32.024Z,4.25
2022-12-04T15:32:34.678Z,3.40
2022-12-04T15:37:37.179Z,4.32
2022-12-04T15:42:39.239Z,4.03
2022-12-04T15:47:41.176Z,2.80
2022-12-04T15:52:56.507Z,3.92
2022-12-04T15:58:25.093Z,3.75
2022-12-04T16:03:42.303Z,3.88
2022-12-04T16:08:46.690Z,4.03
2022-12-04T16:13:50.877Z,3.65
2022-12-04T16:18:52.838Z,4.40
2022-12-04T16:23:54.810Z,4.13
2022-12-04T16:28:57.055Z,3.13
2022-12-04T16:33:59.167Z,3.72
2022-12-04T16:39:01.739Z,3.00
2022-12-04T16:44:05.737Z,8.65
2022-12-04T16:49:11.545Z,2.72
2022-12-04T16:54:14.678Z,2.95
2022-12-04T16:59:16.823Z,2.60
2022-12-04T17:04:19.291Z,4.00
2022-12-04T17:09:21.781Z,2.92
2022-12-04T17:14:23.774Z,1.77
2022-12-04T17:19:25.866Z,2.60
2022-12-04T17:24:27.892Z,3.10
2022-12-04T17:29:29.961Z,3.10
2022-12-04T17:34:31.951Z,4.10
2022-12-04T17:39:34.341Z,3.97
2022-12-04T17:44:36.475Z,3.45
2022-12-04T17:49:38.443Z,3.55
2022-12-04T17:54:40.521Z,3.90
2022-12-04T17:59:43.673Z,4.18
2022-12-04T18:04:45.720Z,3.75
2022-12-04T18:09:49.040Z,3.30
2022-12-04T18:14:51.066Z,3.67
2022-12-04T18:19:53.108Z,4.53
2022-12-04T18:24:55.799Z,2.00
2022-12-04T18:29:58.068Z,2.92
2022-12-04T18:35:00.189Z,4.00
2022-12-04T18:40:06.901Z,4.45
2022-12-04T18:45:10.043Z,4.38
2022-12-04T18:50:12.509Z,4.93
2022-12-04T18:55:14.700Z,5.25
2022-12-04T19:00:16.974Z,3.92
2022-12-04T19:05:19.122Z,2.17
2022-12-04T19:10:21.390Z,4.70
2022-12-04T19:15:24.154Z,5.90
2022-12-04T19:20:26.133Z,4.80
2022-12-04T19:25:28.120Z,4.25
2022-12-04T19:30:32.970Z,2.97
2022-12-04T19:35:34.949Z,5.30
2022-12-04T19:40:36.964Z,3.08
2022-12-04T19:45:39.054Z,5.40
2022-12-04T19:50:41.125Z,5.68
2022-12-04T19:55:43.204Z,5.65
2022-12-04T20:00:48.478Z,5.75
2022-12-04T20:05:50.503Z,5.70
2022-12-04T20:10:52.457Z,5.45
2022-12-04T20:15:54.525Z,5.20
2022-12-04T20:20:58.040Z,5.45
2022-12-04T20:26:04.622Z,5.18
2022-12-04T20:31:17.016Z,6.10
2022-12-04T20:36:22.037Z,5.60
2022-12-04T20:41:25.430Z,4.55
2022-12-04T20:46:32.971Z,5.03
2022-12-04T20:51:38.523Z,5.40
2022-12-04T20:56:42.152Z,5.03
2022-12-04T21:01:44.283Z,4.50
2022-12-04T21:06:47.154Z,4.55
2022-12-04T21:11:52.124Z,5.22
2022-12-04T21:16:54.155Z,5.30
2022-12-04T21:21:57.171Z,4.10
2022-12-04T21:26:59.100Z,4.53
2022-12-04T21:32:01.255Z,5.68
2022-12-04T21:37:03.361Z,5.68
2022-12-04T21:42:24.106Z,5.03
2022-12-04T21:47:26.802Z,4.93
2022-12-04T21:52:28.951Z,4.18
2022-12-04T21:57:30.905Z,5.68
2022-12-04T22:02:32.950Z,5.15
2022-12-04T22:07:35.240Z,5.00
2022-12-04T22:12:52.625Z,5.00
2022-12-04T22:17:54.707Z,4.53
2022-12-04T22:22:56.753Z,4.93
2022-12-04T22:27:59.961Z,5.13
2022-12-04T22:33:02.099Z,5.55
2022-12-04T22:38:04.233Z,5.07
2022-12-04T22:43:07.373Z,6.68
2022-12-04T22:48:09.467Z,5.28
2022-12-04T22:53:11.486Z,5.00
2022-12-04T22:58:13.532Z,5.22
2022-12-04T23:03:16.341Z,4.88
2022-12-04T23:08:19.331Z,5.22
2022-12-04T23:13:21.478Z,5.40
2022-12-04T23:18:23.512Z,4.63
2022-12-04T23:23:25.524Z,4.55
2022-12-04T23:28:27.513Z,5.57
2022-12-04T23:33:30.167Z,5.47
2022-12-04T23:38:32.458Z,5.03
2022-12-04T23:43:35.272Z,5.68
2022-12-04T23:48:37.299Z,5.63
2022-12-04T23:53:39.981Z,5.65
2022-12-04T23:58:43.815Z,5.78
